createdAt,value
2023-04-24T00:00:22.645Z,67.5003
2023-04-24T00:01:23.815Z,68.0436
2023-04-24T00:02:25.531Z,69.0686
2023-04-24T00:03:27.699Z,68.3561
2023-04-24T00:04:28.800Z,69.3486
2023-04-24T00:05:30.302Z,67.6914
2023-04-24T00:06:31.940Z,66.8159
2023-04-24T00:07:33.634Z,65.9459
2023-04-24T00:08:35.227Z,65.4610
2023-04-24T00:09:36.888Z,65.1378
2023-04-24T00:10:38.534Z,65.9136
2023-04-24T00:11:40.212Z,67.2006
2023-04-24T00:12:42.625Z,66.2526
2023-04-24T00:13:43.440Z,67.5324
2023-04-24T00:14:45.065Z,67.5113
2023-04-24T00:15:46.757Z,67.0609
2023-04-24T00:16:48.420Z,68.8944
2023-04-24T00:17:50.197Z,68.2382
2023-04-24T00:18:51.669Z,67.5377
2023-04-24T00:19:53.319Z,67.3913
2023-04-24T00:20:54.967Z,65.6042
2023-04-24T00:21:56.602Z,64.9466
2023-04-24T00:22:58.676Z,64.9819
2023-04-24T00:23:59.836Z,64.9814
2023-04-24T00:25:01.538Z,66.5495
2023-04-24T00:26:03.151Z,66.9809
2023-04-24T00:27:04.819Z,67.4959
2023-04-24T00:28:06.481Z,69.3439
2023-04-24T00:29:08.086Z,67.8325
2023-04-24T00:30:09.710Z,69.2943
2023-04-24T00:31:11.409Z,68.1131
2023-04-24T00:32:13.141Z,66.8538
2023-04-24T00:33:14.678Z,66.7696
2023-04-24T00:34:16.253Z,65.2227
2023-04-24T00:35:17.937Z,65.3341
2023-04-24T00:36:19.565Z,65.5840
2023-04-24T00:37:21.256Z,67.0797
2023-04-24T00:38:22.956Z,67.0285
2023-04-24T00:39:24.505Z,68.1068
2023-04-24T00:40:26.188Z,68.1953
2023-04-24T00:41:27.767Z,69.4957
2023-04-24T00:42:29.702Z,69.1763
2023-04-24T00:43:31.077Z,68.2102
2023-04-24T00:44:32.747Z,66.3893
2023-04-24T00:45:34.338Z,64.8506
2023-04-24T00:46:36.105Z,64.9551
2023-04-24T00:47:37.759Z,64.7748
2023-04-24T00:48:39.339Z,65.4930
2023-04-24T00:49:41.223Z,65.3790
2023-04-24T00:50:42.632Z,67.1485
2023-04-24T00:51:44.177Z,67.1022
2023-04-24T00:52:45.935Z,67.7560
2023-04-24T00:53:47.510Z,68.8978
2023-04-24T00:54:49.183Z,68.0282
2023-04-24T00:55:50.786Z,69.3082
2023-04-24T00:56:52.481Z,67.7655
2023-04-24T00:57:54.136Z,66.0254
2023-04-24T00:58:55.815Z,64.6456
2023-04-24T00:59:57.358Z,64.5460
2023-04-24T01:00:59.725Z,65.0755
2023-04-24T01:02:00.649Z,64.3735
2023-04-24T01:03:03.332Z,65.3613
2023-04-24T01:04:04.141Z,66.0942
2023-04-24T01:05:05.622Z,67.1787
2023-04-24T01:06:07.193Z,68.6907
2023-04-24T01:07:08.929Z,69.1615
2023-04-24T01:08:10.545Z,69.4390
2023-04-24T01:09:12.224Z,69.1533
2023-04-24T01:10:13.816Z,66.8024
2023-04-24T01:11:15.519Z,65.6032
2023-04-24T01:12:17.078Z,64.4829
2023-04-24T01:13:18.838Z,64.6311
2023-04-24T01:14:20.432Z,64.7399
2023-04-24T01:15:22.082Z,65.1329
2023-04-24T01:16:23.814Z,66.7053
2023-04-24T01:17:25.394Z,67.6780
2023-04-24T01:18:26.997Z,67.4566
2023-04-24T01:19:28.669Z,68.7292
2023-04-24T01:20:30.309Z,68.7630
2023-04-24T01:21:31.924Z,69.1730
2023-04-24T01:22:34.140Z,69.2721
2023-04-24T01:23:35.661Z,67.6470
2023-04-24T01:24:36.943Z,66.3546
2023-04-24T01:25:38.532Z,64.9646
2023-04-24T01:26:40.165Z,64.8087
2023-04-24T01:27:41.776Z,64.6055
2023-04-24T01:28:43.478Z,63.7599
2023-04-24T01:29:45.248Z,64.5221
2023-04-24T01:30:46.727Z,65.3811
2023-04-24T01:31:48.493Z,67.0910
2023-04-24T01:32:50.159Z,67.9744
2023-04-24T01:33:51.729Z,68.4536
2023-04-24T01:34:53.734Z,68.8273
2023-04-24T01:35:54.969Z,68.1155
2023-04-24T01:36:56.617Z,66.3752
2023-04-24T01:37:58.215Z,64.8898
2023-04-24T01:39:00.006Z,64.4812
2023-04-24T01:40:01.567Z,64.7978
2023-04-24T01:41:03.229Z,65.8166
2023-04-24T01:42:04.892Z,64.6086
2023-04-24T01:43:06.492Z,66.0406
2023-04-24T01:44:08.172Z,65.8476
2023-04-24T01:45:09.876Z,67.8402
2023-04-24T01:46:11.435Z,68.3463
2023-04-24T01:47:13.104Z,69.0116
2023-04-24T01:48:14.676Z,69.0620
2023-04-24T01:49:16.437Z,65.7002
2023-04-24T01:50:18.051Z,65.4950
2023-04-24T01:51:19.657Z,66.4998
2023-04-24T01:52:21.371Z,65.6616
2023-04-24T01:53:22.955Z,65.9732
2023-04-24T01:54:24.677Z,64.8841
2023-04-24T01:55:26.304Z,65.6173
2023-04-24T01:56:27.951Z,67.4277
2023-04-24T01:57:29.567Z,68.3361
2023-04-24T01:58:31.193Z,68.9500
2023-04-24T01:59:32.944Z,67.5547
2023-04-24T02:00:34.551Z,66.1574
2023-04-24T02:01:36.136Z,64.2634
2023-04-24T02:02:37.970Z,63.8746
2023-04-24T02:03:39.624Z,63.8200
2023-04-24T02:04:41.169Z,64.5512
2023-04-24T02:05:42.747Z,64.1608
2023-04-24T02:06:44.385Z,63.9311
2023-04-24T02:07:46.037Z,65.7717
2023-04-24T02:08:47.663Z,67.1224
2023-04-24T02:09:49.427Z,67.6551
2023-04-24T02:10:51.202Z,68.4711
2023-04-24T02:11:52.651Z,68.7695
2023-04-24T02:12:55.129Z,68.6946
2023-04-24T02:13:55.941Z,67.9228
2023-04-24T02:14:57.580Z,64.8220
2023-04-24T02:15:59.333Z,64.5680
2023-04-24T02:17:00.849Z,64.3742
2023-04-24T02:18:02.546Z,64.2844
2023-04-24T02:19:04.106Z,64.2548
2023-04-24T02:20:05.938Z,64.5798
2023-04-24T02:21:07.470Z,66.1995
2023-04-24T02:22:09.087Z,66.0820
2023-04-24T02:23:10.702Z,67.8413
2023-04-24T02:24:12.358Z,68.1130
2023-04-24T02:25:14.237Z,68.7302
2023-04-24T02:26:15.670Z,66.9925
2023-04-24T02:27:17.297Z,65.7447
2023-04-24T02:28:18.946Z,63.5933
2023-04-24T02:29:20.645Z,63.6145
2023-04-24T02:30:22.304Z,64.7317
2023-04-24T02:31:24.081Z,64.4094
2023-04-24T02:32:25.592Z,63.5872
2023-04-24T02:33:27.187Z,64.6024
2023-04-24T02:34:28.791Z,66.0175
2023-04-24T02:35:30.504Z,66.6408
2023-04-24T02:36:32.142Z,67.6458
2023-04-24T02:37:33.849Z,67.8553
2023-04-24T02:38:35.379Z,68.0227
2023-04-24T02:39:37.056Z,66.9872
2023-04-24T02:40:38.692Z,66.0659
2023-04-24T02:41:40.420Z,63.5417
2023-04-24T02:42:41.996Z,62.9875
2023-04-24T02:43:43.641Z,63.1803
2023-04-24T02:44:45.332Z,63.4951
2023-04-24T02:45:47.027Z,65.1201
2023-04-24T02:46:48.664Z,65.3630
2023-04-24T02:47:50.352Z,64.6525
2023-04-24T02:48:51.879Z,65.2607
2023-04-24T02:49:53.532Z,66.6812
2023-04-24T02:50:55.202Z,67.5270
2023-04-24T02:51:58.776Z,67.0763
2023-04-24T02:52:58.477Z,67.3052
2023-04-24T02:54:00.125Z,67.3575
2023-04-24T02:55:01.704Z,65.8327
2023-04-24T02:56:03.401Z,63.9209
2023-04-24T02:57:05.123Z,63.1519
2023-04-24T02:58:06.817Z,63.9462
2023-04-24T02:59:08.371Z,64.4634
2023-04-24T03:00:10.050Z,64.6723
2023-04-24T03:01:11.641Z,64.7682
2023-04-24T03:02:14.325Z,65.7365
2023-04-24T03:03:15.130Z,64.6702
2023-04-24T03:04:16.944Z,66.6340
2023-04-24T03:05:18.222Z,68.3352
2023-04-24T03:06:19.906Z,67.3588
2023-04-24T03:07:21.509Z,66.6338
2023-04-24T03:08:23.201Z,64.4419
2023-04-24T03:09:24.851Z,63.3846
2023-04-24T03:10:26.431Z,63.1881
2023-04-24T03:11:28.136Z,63.5747
2023-04-24T03:12:29.803Z,64.4816
2023-04-24T03:13:31.462Z,64.4457
2023-04-24T03:14:33.010Z,65.9401
2023-04-24T03:15:34.684Z,66.6711
2023-04-24T03:16:36.370Z,67.2395
2023-04-24T03:17:38.186Z,67.5277
2023-04-24T03:18:39.624Z,67.4791
2023-04-24T03:19:41.495Z,65.4510
2023-04-24T03:20:42.971Z,63.2985
2023-04-24T03:21:44.584Z,63.2092
2023-04-24T03:22:46.178Z,63.6711
2023-04-24T03:23:47.923Z,64.2806
2023-04-24T03:24:49.525Z,64.3874
2023-04-24T03:25:51.146Z,64.1271
2023-04-24T03:26:52.755Z,64.8032
2023-04-24T03:27:54.434Z,66.6145
2023-04-24T03:28:56.279Z,66.8738
2023-04-24T03:29:57.722Z,67.8193
2023-04-24T03:31:00.288Z,66.8418
2023-04-24T03:32:00.996Z,64.7812
2023-04-24T03:33:02.759Z,63.0981
2023-04-24T03:34:04.360Z,63.2355
2023-04-24T03:35:06.794Z,63.0320
2023-04-24T03:36:07.582Z,63.7314
2023-04-24T03:37:09.232Z,63.6405
2023-04-24T03:38:10.816Z,63.9344
2023-04-24T03:39:12.544Z,65.1797
2023-04-24T03:40:14.190Z,65.5390
2023-04-24T03:41:15.823Z,67.3698
2023-04-24T03:42:17.423Z,67.4880
2023-04-24T03:43:19.169Z,66.1425
2023-04-24T03:44:20.776Z,65.0458
2023-04-24T03:45:22.469Z,63.0201
2023-04-24T03:46:24.014Z,63.1344
2023-04-24T03:47:25.716Z,63.0741
2023-04-24T03:48:28.203Z,63.5888
2023-04-24T03:49:29.205Z,65.1458
2023-04-24T03:50:30.527Z,63.3326
2023-04-24T03:51:32.237Z,64.5424
2023-04-24T03:52:33.796Z,65.4421
2023-04-24T03:53:35.479Z,65.6693
2023-04-24T03:54:38.712Z,66.0098
2023-04-24T03:55:38.817Z,65.2631
2023-04-24T03:56:40.339Z,64.5047
2023-04-24T03:57:42.065Z,64.7952
2023-04-24T03:58:43.704Z,62.0299
2023-04-24T03:59:45.480Z,63.2417
2023-04-24T04:00:47.169Z,63.4604
2023-04-24T04:01:48.617Z,62.9517
2023-04-24T04:02:50.446Z,62.3347
2023-04-24T04:03:52.023Z,62.2651
2023-04-24T04:04:53.659Z,61.9446
2023-04-24T04:05:55.289Z,61.1577
2023-04-24T04:06:56.745Z,61.0559
2023-04-24T04:07:58.485Z,59.8475
2023-04-24T04:09:00.113Z,58.8699
2023-04-24T04:10:01.829Z,60.0715
2023-04-24T04:11:05.228Z,59.4326
2023-04-24T04:12:05.090Z,59.8561
2023-04-24T04:13:06.713Z,59.3953
2023-04-24T04:14:08.337Z,58.6398
2023-04-24T04:15:10.007Z,58.6283
2023-04-24T04:16:11.668Z,58.6667
2023-04-24T04:17:13.296Z,58.8713
2023-04-24T04:18:14.981Z,58.0296
2023-04-24T04:19:16.483Z,58.4574
2023-04-24T04:20:18.180Z,58.1798
2023-04-24T04:21:19.900Z,58.5493
2023-04-24T04:22:21.578Z,58.1674
2023-04-24T04:23:23.109Z,58.1653
2023-04-24T04:24:24.771Z,57.2766
2023-04-24T04:25:26.364Z,57.6792
2023-04-24T04:26:28.100Z,56.9604
2023-04-24T04:27:29.699Z,57.5490
2023-04-24T04:28:31.349Z,57.5007
2023-04-24T04:29:33.000Z,57.8656
2023-04-24T04:30:34.785Z,57.4264
2023-04-24T04:31:36.511Z,57.0663
2023-04-24T04:32:38.101Z,57.1470
2023-04-24T04:33:40.677Z,56.8616
2023-04-24T04:34:41.227Z,56.8690
2023-04-24T04:35:42.924Z,56.7707
2023-04-24T04:36:44.582Z,56.4706
2023-04-24T04:37:46.254Z,57.1251
2023-04-24T04:38:47.797Z,56.7244
2023-04-24T04:39:49.490Z,57.6872
2023-04-24T04:40:51.071Z,56.9655
2023-04-24T04:41:52.819Z,57.6539
2023-04-24T04:42:54.458Z,57.1902
2023-04-24T04:43:56.049Z,57.7317
2023-04-24T04:44:57.710Z,57.7785
2023-04-24T04:45:59.376Z,57.6403
2023-04-24T04:47:01.038Z,58.3459
2023-04-24T04:48:02.741Z,58.3729
2023-04-24T04:49:04.300Z,57.6873
2023-04-24T04:50:05.895Z,57.9297
2023-04-24T04:51:07.644Z,58.0735
2023-04-24T04:52:09.208Z,58.2744
2023-04-24T04:53:10.895Z,57.9634
2023-04-24T04:54:12.437Z,57.8234
2023-04-24T04:55:14.159Z,58.2128
2023-04-24T04:56:15.745Z,58.2221
2023-04-24T04:57:17.489Z,57.7802
2023-04-24T04:58:19.125Z,58.1071
2023-04-24T04:59:20.700Z,58.4763
2023-04-24T05:00:22.366Z,58.2854
2023-04-24T05:01:24.136Z,58.4909
2023-04-24T05:02:25.744Z,58.3563
2023-04-24T05:03:27.589Z,58.6695
2023-04-24T05:04:28.942Z,58.5075
2023-04-24T05:05:30.565Z,58.8764
2023-04-24T05:06:32.194Z,58.3253
2023-04-24T05:07:34.316Z,58.9704
2023-04-24T05:08:35.513Z,59.4192
2023-04-24T05:09:37.150Z,58.7280
2023-04-24T05:10:38.839Z,59.0910
2023-04-24T05:11:40.475Z,59.2119
2023-04-24T05:12:43.218Z,59.3083
2023-04-24T05:13:43.827Z,59.3143
2023-04-24T05:14:45.369Z,58.7851
2023-04-24T05:15:47.070Z,59.7836
2023-04-24T05:16:48.675Z,59.9167
2023-04-24T05:17:51.360Z,60.4551
2023-04-24T05:18:51.990Z,59.0156
2023-04-24T05:19:53.698Z,59.4557
2023-04-24T05:20:55.197Z,59.2319
2023-04-24T05:21:56.922Z,59.1106
2023-04-24T05:22:58.530Z,59.1441
2023-04-24T05:24:00.312Z,58.4916
2023-04-24T05:25:01.767Z,59.0724
2023-04-24T05:26:04.597Z,58.2751
2023-04-24T05:27:05.080Z,58.8949
2023-04-24T05:28:06.821Z,58.7646
2023-04-24T05:29:08.482Z,59.5534
2023-04-24T05:30:10.069Z,59.5696
2023-04-24T05:31:11.678Z,58.9577
2023-04-24T05:32:13.351Z,59.0347
2023-04-24T05:33:15.079Z,59.9586
2023-04-24T05:34:16.684Z,59.6377
2023-04-24T05:35:18.226Z,60.3091
2023-04-24T05:36:19.924Z,60.5078
2023-04-24T05:37:21.542Z,61.0977
2023-04-24T05:38:23.859Z,60.5402
2023-04-24T05:39:24.958Z,60.7262
2023-04-24T05:40:26.482Z,60.6094
2023-04-24T05:41:28.126Z,61.0057
2023-04-24T05:42:29.801Z,61.0315
2023-04-24T05:43:31.446Z,60.8368
2023-04-24T05:44:33.191Z,60.1742
2023-04-24T05:45:34.689Z,60.9138
2023-04-24T05:46:36.424Z,60.9611
2023-04-24T05:47:38.033Z,61.4301
2023-04-24T05:48:39.721Z,61.3595
2023-04-24T05:49:41.460Z,61.0751
2023-04-24T05:50:42.951Z,60.9454
2023-04-24T05:51:44.561Z,62.0927
2023-04-24T05:52:46.234Z,61.7425
2023-04-24T05:53:47.900Z,61.8719
2023-04-24T05:54:49.591Z,62.7561
2023-04-24T05:55:51.170Z,64.8331
2023-04-24T05:56:52.844Z,64.6351
2023-04-24T05:57:54.508Z,64.9241
2023-04-24T05:58:56.305Z,64.6919
2023-04-24T05:59:57.862Z,61.7540
2023-04-24T06:00:59.369Z,62.4855
2023-04-24T06:02:01.075Z,62.7573
2023-04-24T06:03:03.167Z,62.1471
2023-04-24T06:04:04.505Z,62.4477
2023-04-24T06:05:06.125Z,60.9267
2023-04-24T06:06:07.670Z,60.4742
2023-04-24T06:07:09.280Z,61.1005
2023-04-24T06:08:10.946Z,61.6281
2023-04-24T06:09:12.619Z,62.2050
2023-04-24T06:10:14.226Z,62.0009
2023-04-24T06:11:15.972Z,62.1989
2023-04-24T06:12:17.553Z,60.9405
2023-04-24T06:13:19.133Z,61.6233
2023-04-24T06:14:20.868Z,61.9789
2023-04-24T06:15:22.510Z,62.0433
2023-04-24T06:16:24.125Z,62.9890
2023-04-24T06:17:25.705Z,61.4421
2023-04-24T06:18:27.372Z,61.6975
2023-04-24T06:19:29.047Z,62.6213
2023-04-24T06:20:30.759Z,62.3811
2023-04-24T06:21:32.357Z,62.6054
2023-04-24T06:22:33.943Z,61.9537
2023-04-24T06:23:35.617Z,61.9027
2023-04-24T06:24:37.277Z,62.7089
2023-04-24T06:25:38.955Z,62.7517
2023-04-24T06:26:40.506Z,62.1974
2023-04-24T06:27:42.183Z,62.1413
2023-04-24T06:28:43.774Z,61.5464
2023-04-24T06:29:45.649Z,62.5548
2023-04-24T06:30:47.143Z,62.0861
2023-04-24T06:31:48.819Z,62.0576
2023-04-24T06:32:50.488Z,61.4632
2023-04-24T06:33:52.088Z,61.3225
2023-04-24T06:34:53.811Z,61.6988
2023-04-24T06:35:55.353Z,62.0859
2023-04-24T06:36:56.980Z,61.9871
2023-04-24T06:37:58.626Z,62.8004
2023-04-24T06:39:00.293Z,61.8947
2023-04-24T06:40:02.362Z,62.1360
2023-04-24T06:41:03.644Z,63.0699
2023-04-24T06:42:05.168Z,62.3789
2023-04-24T06:43:06.856Z,61.8602
2023-04-24T06:44:08.403Z,62.0759
2023-04-24T06:45:10.192Z,61.4845
2023-04-24T06:46:11.826Z,62.0481
2023-04-24T06:47:13.408Z,61.5487
2023-04-24T06:48:14.979Z,62.2651
2023-04-24T06:49:16.702Z,62.2516
2023-04-24T06:50:18.360Z,62.6224
2023-04-24T06:51:20.037Z,61.5901
2023-04-24T06:52:21.586Z,62.0041
2023-04-24T06:53:23.304Z,61.4815
2023-04-24T06:54:24.855Z,61.2017
2023-04-24T06:55:26.613Z,62.5682
2023-04-24T06:56:28.169Z,62.6737
2023-04-24T06:57:29.870Z,61.8679
2023-04-24T06:58:31.422Z,62.3606
2023-04-24T06:59:33.248Z,63.4666
2023-04-24T07:00:34.830Z,63.3092
2023-04-24T07:01:36.957Z,62.8161
2023-04-24T07:02:38.503Z,62.1064
2023-04-24T07:03:39.917Z,63.4382
2023-04-24T07:04:41.639Z,63.3860
2023-04-24T07:05:43.057Z,62.5767
2023-04-24T07:06:44.753Z,62.6734
2023-04-24T07:07:46.390Z,62.6601
2023-04-24T07:08:47.951Z,62.1548
2023-04-24T07:09:49.623Z,62.3614
2023-04-24T07:10:51.218Z,62.0447
2023-04-24T07:11:52.890Z,62.8885
2023-04-24T07:12:54.466Z,63.0022
2023-04-24T07:13:56.164Z,63.5852
2023-04-24T07:14:57.717Z,63.2991
2023-04-24T07:15:59.469Z,63.5712
2023-04-24T07:17:01.021Z,63.5556
2023-04-24T07:18:05.446Z,63.4776
2023-04-24T07:19:04.331Z,63.0630
2023-04-24T07:20:06.003Z,63.4312
2023-04-24T07:21:07.598Z,62.3413
2023-04-24T07:22:09.829Z,62.8798
2023-04-24T07:23:10.922Z,63.6623
2023-04-24T07:24:12.594Z,62.1866
2023-04-24T07:25:14.327Z,62.2090
2023-04-24T07:26:16.046Z,61.9771
2023-04-24T07:27:17.638Z,62.0628
2023-04-24T07:28:19.364Z,62.1511
2023-04-24T07:29:20.875Z,62.0845
2023-04-24T07:30:22.599Z,62.5534
2023-04-24T07:31:24.145Z,63.0397
2023-04-24T07:32:26.787Z,62.2830
2023-04-24T07:33:27.495Z,61.1139
2023-04-24T07:34:29.163Z,61.7602
2023-04-24T07:35:31.728Z,62.2906
2023-04-24T07:36:32.442Z,60.7429
2023-04-24T07:37:34.003Z,51.7040
2023-04-24T07:38:35.787Z,49.3546
2023-04-24T07:39:37.358Z,55.1319
2023-04-24T07:40:39.011Z,57.3030
2023-04-24T07:41:41.018Z,56.2877
2023-04-24T07:42:42.271Z,56.9355
2023-04-24T07:43:44.811Z,57.6525
2023-04-24T07:44:45.604Z,58.5658
2023-04-24T07:45:47.185Z,58.4574
2023-04-24T07:46:48.946Z,58.7522
2023-04-24T07:47:50.513Z,58.9225
2023-04-24T07:49:05.380Z,59.7479
2023-04-24T07:50:15.337Z,59.1929
2023-04-24T07:50:55.433Z,59.0412
2023-04-24T07:51:57.013Z,59.1414
2023-04-24T07:52:58.720Z,59.8919
2023-04-24T07:54:00.356Z,59.6629
2023-04-24T07:55:03.014Z,59.3099
2023-04-24T07:56:03.667Z,59.7560
2023-04-24T07:57:05.282Z,60.4111
2023-04-24T07:58:06.849Z,59.3733
2023-04-24T07:59:08.604Z,60.5801
2023-04-24T08:00:10.228Z,60.8738
2023-04-24T08:01:13.020Z,61.7842
2023-04-24T08:02:13.518Z,60.3708
2023-04-24T08:03:16.337Z,59.9417
2023-04-24T08:04:16.862Z,59.9065
2023-04-24T08:05:19.200Z,60.7595
2023-04-24T08:06:20.089Z,62.1789
2023-04-24T08:07:21.728Z,60.4307
2023-04-24T08:08:23.356Z,60.2102
2023-04-24T08:09:26.495Z,61.6547
2023-04-24T08:10:26.666Z,61.4531
2023-04-24T08:11:29.007Z,61.5670
2023-04-24T08:12:29.970Z,61.5956
2023-04-24T08:13:32.029Z,61.3910
2023-04-24T08:14:33.243Z,61.9204
2023-04-24T08:15:34.828Z,62.0649
2023-04-24T08:16:37.139Z,62.3042
2023-04-24T08:17:38.092Z,60.6791
2023-04-24T08:18:39.818Z,61.6808
2023-04-24T08:19:41.491Z,62.4090
2023-04-24T08:20:43.161Z,60.9816
2023-04-24T08:21:44.720Z,61.5894
2023-04-24T08:22:46.410Z,59.8864
2023-04-24T08:23:48.037Z,61.1249
2023-04-24T08:24:49.643Z,60.6135
2023-04-24T08:25:51.307Z,61.0234
2023-04-24T08:26:52.970Z,61.4851
2023-04-24T08:27:54.611Z,60.6890
2023-04-24T08:28:56.233Z,61.2154
2023-04-24T08:29:57.900Z,61.2825
2023-04-24T08:30:59.536Z,61.2727
2023-04-24T08:32:01.221Z,60.1056
2023-04-24T08:33:02.897Z,60.6054
2023-04-24T08:34:04.422Z,61.3379
2023-04-24T08:35:06.142Z,61.4592
2023-04-24T08:36:07.739Z,61.6088
2023-04-24T08:37:09.578Z,60.9619
2023-04-24T08:38:11.096Z,62.2315
2023-04-24T08:39:12.752Z,61.6162
2023-04-24T08:40:14.332Z,62.0104
2023-04-24T08:41:16.955Z,61.6888
2023-04-24T08:42:17.656Z,61.3978
2023-04-24T08:43:19.308Z,62.1164
2023-04-24T08:44:21.030Z,61.9607
2023-04-24T08:45:22.560Z,61.7169
2023-04-24T08:46:25.190Z,61.3490
2023-04-24T08:47:25.909Z,61.7656
2023-04-24T08:48:31.685Z,61.6562
2023-04-24T08:49:29.204Z,61.5525
2023-04-24T08:50:30.828Z,61.0758
2023-04-24T08:51:32.438Z,62.2859
2023-04-24T08:52:34.103Z,62.4238
2023-04-24T08:53:35.840Z,62.3351
2023-04-24T08:54:37.429Z,63.0721
2023-04-24T08:55:39.062Z,62.6747
2023-04-24T08:56:40.695Z,62.5783
2023-04-24T08:57:42.333Z,55.9993
2023-04-24T08:58:44.071Z,51.9043
2023-04-24T08:59:45.723Z,55.5480
2023-04-24T09:00:47.346Z,59.6877
2023-04-24T09:01:49.936Z,63.0557
2023-04-24T09:02:50.662Z,62.5857
2023-04-24T09:03:52.384Z,63.3042
2023-04-24T09:04:54.000Z,63.0912
2023-04-24T09:05:55.447Z,60.7018
2023-04-24T09:06:57.140Z,61.5544
2023-04-24T09:07:58.790Z,60.2377
2023-04-24T09:09:00.490Z,61.2414
2023-04-24T09:10:02.119Z,62.2468
2023-04-24T09:11:03.800Z,62.4324
2023-04-24T09:12:05.421Z,63.8320
2023-04-24T09:13:07.116Z,63.3829
2023-04-24T09:14:08.676Z,61.5538
2023-04-24T09:15:10.385Z,63.6361
2023-04-24T09:16:11.985Z,63.7950
2023-04-24T09:17:13.710Z,64.6011
2023-04-24T09:18:16.245Z,64.0982
2023-04-24T09:19:17.800Z,65.0521
2023-04-24T09:20:19.433Z,64.6088
2023-04-24T09:21:20.134Z,64.4825
2023-04-24T09:22:21.722Z,63.0430
2023-04-24T09:23:23.404Z,63.2301
2023-04-24T09:24:25.074Z,63.3670
2023-04-24T09:25:26.758Z,63.5019
2023-04-24T09:26:28.361Z,64.0051
2023-04-24T09:27:29.982Z,64.4559
2023-04-24T09:28:31.569Z,64.4971
2023-04-24T09:29:33.337Z,63.7845
2023-04-24T09:30:34.928Z,63.0905
2023-04-24T09:31:36.598Z,63.6709
2023-04-24T09:32:38.314Z,64.4236
2023-04-24T09:33:39.832Z,65.7473
2023-04-24T09:34:41.508Z,66.1648
2023-04-24T09:35:43.184Z,65.9888
2023-04-24T09:36:44.709Z,66.5982
2023-04-24T09:37:46.426Z,67.0277
2023-04-24T09:38:48.041Z,66.8815
2023-04-24T09:39:50.483Z,56.3728
2023-04-24T09:40:51.365Z,48.7306
2023-04-24T09:41:53.044Z,43.5599
2023-04-24T09:42:54.647Z,44.8638
2023-04-24T09:43:56.309Z,42.8701
2023-04-24T09:45:04.522Z,44.1870
2023-04-24T09:45:59.705Z,44.4279
2023-04-24T09:47:01.208Z,48.8439
2023-04-24T09:48:02.909Z,49.2253
2023-04-24T09:49:04.531Z,50.0644
2023-04-24T09:50:06.504Z,49.7844
2023-04-24T09:51:07.810Z,54.3827
2023-04-24T09:52:09.480Z,55.1065
2023-04-24T09:53:11.063Z,54.0220
2023-04-24T09:54:12.788Z,57.0416
2023-04-24T09:55:14.414Z,57.4429
2023-04-24T09:56:16.179Z,59.0096
2023-04-24T09:57:17.669Z,56.1457
2023-04-24T09:58:19.427Z,63.2070
2023-04-24T09:59:20.924Z,64.4187
2023-04-24T10:00:22.669Z,63.9509
2023-04-24T10:01:24.343Z,61.7797
2023-04-24T10:02:26.006Z,58.1680
2023-04-24T10:03:27.591Z,58.4021
2023-04-24T10:04:29.331Z,60.0550
2023-04-24T10:05:30.855Z,59.6816
2023-04-24T10:06:32.564Z,61.1773
2023-04-24T10:07:34.124Z,60.6632
2023-04-24T10:08:35.811Z,61.2764
2023-04-24T10:09:37.428Z,60.2004
2023-04-24T10:10:39.163Z,59.7751
2023-04-24T10:11:40.960Z,60.5263
2023-04-24T10:12:42.373Z,60.0516
2023-04-24T10:13:44.007Z,60.9151
2023-04-24T10:14:47.355Z,59.8106
2023-04-24T10:15:47.443Z,60.5364
2023-04-24T10:16:49.062Z,60.3303
2023-04-24T10:17:50.693Z,59.2596
2023-04-24T10:18:52.275Z,59.2234
2023-04-24T10:19:53.872Z,58.8323
2023-04-24T10:20:55.621Z,60.2441
2023-04-24T10:21:57.257Z,61.7226
2023-04-24T10:22:58.896Z,61.3556
2023-04-24T10:24:01.408Z,61.5894
2023-04-24T10:25:02.176Z,61.5712
2023-04-24T10:26:03.841Z,61.0984
2023-04-24T10:27:05.492Z,61.6899
2023-04-24T10:28:09.041Z,63.0570
2023-04-24T10:29:08.723Z,63.3384
2023-04-24T10:30:10.351Z,61.5250
2023-04-24T10:31:12.080Z,62.6192
2023-04-24T10:32:13.672Z,62.0184
2023-04-24T10:33:15.303Z,62.9002
2023-04-24T10:34:16.936Z,62.4369
2023-04-24T10:35:18.601Z,62.8019
2023-04-24T10:36:20.255Z,62.0075
2023-04-24T10:37:21.942Z,58.8191
2023-04-24T10:38:23.472Z,49.7065
2023-04-24T10:39:27.319Z,54.4145
2023-04-24T10:40:26.784Z,60.2198
2023-04-24T10:41:28.519Z,60.6253
2023-04-24T10:42:30.114Z,59.3427
2023-04-24T10:43:31.730Z,57.4656
2023-04-24T10:44:33.412Z,58.3290
2023-04-24T10:45:35.021Z,59.4869
2023-04-24T10:46:36.768Z,57.6579
2023-04-24T10:47:38.422Z,56.8307
2023-04-24T10:48:39.981Z,58.2460
2023-04-24T10:49:41.634Z,59.0748
2023-04-24T10:50:43.317Z,57.8675
2023-04-24T10:51:44.921Z,58.8660
2023-04-24T10:52:46.632Z,60.1134
2023-04-24T10:53:48.238Z,60.0492
2023-04-24T10:54:49.848Z,57.9777
2023-04-24T10:55:51.471Z,59.0406
2023-04-24T10:56:53.214Z,58.7894
2023-04-24T10:57:55.487Z,46.1179
2023-04-24T10:58:56.550Z,42.6381
2023-04-24T10:59:58.390Z,47.2693
2023-04-24T11:00:59.748Z,49.1460
2023-04-24T11:02:01.501Z,55.3665
2023-04-24T11:03:03.347Z,52.9598
2023-04-24T11:04:05.094Z,51.8691
2023-04-24T11:05:06.441Z,52.1387
2023-04-24T11:06:08.069Z,55.2880
2023-04-24T11:07:09.730Z,54.3436
2023-04-24T11:08:11.294Z,55.6813
2023-04-24T11:09:13.110Z,56.3229
2023-04-24T11:10:14.718Z,51.8392
2023-04-24T11:11:16.450Z,39.7574
2023-04-24T11:12:18.028Z,45.9021
2023-04-24T11:13:19.723Z,51.5561
2023-04-24T11:14:21.300Z,46.1382
2023-04-24T11:15:23.013Z,53.1438
2023-04-24T11:16:24.731Z,58.4375
2023-04-24T11:17:26.222Z,59.2280
2023-04-24T11:18:27.956Z,57.6131
2023-04-24T11:19:29.672Z,57.4517
2023-04-24T11:20:31.160Z,54.9772
2023-04-24T11:21:33.446Z,58.3065
2023-04-24T11:22:34.458Z,57.9259
2023-04-24T11:23:37.057Z,58.6478
2023-04-24T11:24:37.802Z,57.0964
2023-04-24T11:25:39.492Z,58.3587
2023-04-24T11:26:41.034Z,58.7510
2023-04-24T11:27:42.720Z,60.3619
2023-04-24T11:28:44.385Z,58.7236
2023-04-24T11:29:46.535Z,59.8265
2023-04-24T11:30:47.657Z,59.4776
2023-04-24T11:31:49.356Z,59.8895
2023-04-24T11:32:51.016Z,60.5850
2023-04-24T11:33:52.592Z,59.6143
2023-04-24T11:34:54.310Z,59.5257
2023-04-24T11:35:55.938Z,59.7272
2023-04-24T11:36:57.510Z,59.1268
2023-04-24T11:39:00.847Z,58.6939
2023-04-24T11:40:02.966Z,58.6785
2023-04-24T11:41:04.080Z,59.9570
2023-04-24T11:42:05.785Z,58.1062
2023-04-24T11:43:08.015Z,59.1808
2023-04-24T11:44:10.054Z,59.2314
2023-04-24T11:45:10.789Z,58.7139
2023-04-24T11:46:12.397Z,56.9042
2023-04-24T11:47:13.952Z,59.7852
2023-04-24T11:48:15.610Z,60.0527
2023-04-24T11:49:17.310Z,60.3668
2023-04-24T11:50:19.059Z,60.5816
2023-04-24T11:51:20.584Z,60.5487
2023-04-24T11:52:22.159Z,61.1909
2023-04-24T11:53:23.867Z,61.3592
2023-04-24T11:54:25.999Z,62.2123
2023-04-24T11:55:27.218Z,60.8138
2023-04-24T11:56:28.789Z,60.5439
2023-04-24T11:57:30.471Z,59.5597
2023-04-24T11:58:32.078Z,59.7621
2023-04-24T11:59:33.800Z,60.7829
2023-04-24T12:00:35.471Z,60.3566
2023-04-24T12:01:37.061Z,51.5861
2023-04-24T12:02:40.213Z,46.2749
2023-04-24T12:03:40.438Z,47.0607
2023-04-24T12:04:42.279Z,55.0622
2023-04-24T12:05:43.735Z,57.0145
2023-04-24T12:06:45.159Z,56.4942
2023-04-24T12:07:46.885Z,58.9322
2023-04-24T12:08:49.466Z,58.5297
2023-04-24T12:09:52.050Z,56.9616
2023-04-24T12:10:53.606Z,55.1227
2023-04-24T12:11:55.067Z,54.2705
2023-04-24T12:12:55.096Z,45.3532
2023-04-24T12:13:56.652Z,42.6041
2023-04-24T12:14:58.743Z,43.0013
2023-04-24T12:16:00.017Z,48.8015
2023-04-24T12:17:01.707Z,49.3064
2023-04-24T12:18:03.383Z,50.4555
2023-04-24T12:19:05.035Z,51.2972
2023-04-24T12:20:06.557Z,56.9131
2023-04-24T12:21:08.253Z,57.4346
2023-04-24T12:22:09.879Z,45.1148
2023-04-24T12:23:11.528Z,43.3240
2023-04-24T12:24:13.157Z,45.7644
2023-04-24T12:25:15.000Z,49.1972
2023-04-24T12:26:16.402Z,48.7546